Time;durP1;ratioP1;P1;durP2;ratioP2;P2;SDS_P1;SDS_P2;PMS_P1;PMS_P2;Temp;Humidity;BMP_temperature;BMP_pressure;BME280_temperature;BME280_humidity;BME280_pressure;Samples;Min_cycle;Max_cycle;Signal;HPM_P1;HPM_P2
2023/07/02 00:01:40;;;;;;;;;;;13.50;99.90;;;;;;4933828;29;19914;-82
2023/07/02 00:04:08;;;;;;;;;;;13.40;99.90;;;;;;4971476;28;19917;-82
2023/07/02 00:06:40;;;;;;;;;;;13.30;99.90;;;;;;4973133;28;19922;-82
2023/07/02 00:09:12;;;;;;;;;;;13.30;99.90;;;;;;4946085;28;19942;-84
2023/07/02 00:11:38;;;;;;;;;;;13.20;99.90;;;;;;4935139;28;20370;-81
2023/07/02 00:14:04;;;;;;;;;;;13.20;99.90;;;;;;4936224;28;19945;-81
2023/07/02 00:16:30;;;;;;;;;;;13.10;99.90;;;;;;4931401;29;19914;-83
2023/07/02 00:18:55;;;;;;;;;;;13.20;99.90;;;;;;4971908;28;19918;-82
2023/07/02 00:21:21;;;;;;;;;;;13.10;99.90;;;;;;4933172;28;19964;-82
2023/07/02 00:23:47;;;;;;;;;;;13.10;99.90;;;;;;4949438;28;19918;-83
2023/07/02 00:26:13;;;;;;;;;;;13.10;99.90;;;;;;4955792;28;19945;-82
2023/07/02 00:28:38;;;;;;;;;;;13.00;99.90;;;;;;4932139;29;19965;-82
2023/07/02 00:31:05;;;;;;;;;;;13.00;99.90;;;;;;4968959;28;19930;-83
2023/07/02 00:33:31;;;;;;;;;;;13.00;99.90;;;;;;4951080;28;20498;-82
2023/07/02 00:36:00;;;;;;;;;;;13.00;99.90;;;;;;4956838;28;19968;-83
2023/07/02 00:38:26;;;;;;;;;;;13.00;99.90;;;;;;4948763;28;19952;-83
2023/07/02 00:40:51;;;;;;;;;;;12.90;99.90;;;;;;4936233;28;20286;-83
2023/07/02 00:43:17;;;;;;;;;;;12.90;99.90;;;;;;4946071;28;19992;-83
2023/07/02 00:45:58;;;;;;;;;;;12.90;99.90;;;;;;4956677;28;19937;-81
2023/07/02 00:48:24;;;;;;;;;;;12.90;99.90;;;;;;4942177;28;19925;-81
2023/07/02 00:50:50;;;;;;;;;;;12.90;99.90;;;;;;4973409;28;20366;-84
2023/07/02 00:53:16;;;;;;;;;;;13.00;99.90;;;;;;4956709;28;19919;-82
2023/07/02 00:55:41;;;;;;;;;;;13.00;99.90;;;;;;4948702;28;19915;-84
2023/07/02 00:58:08;;;;;;;;;;;13.00;99.90;;;;;;4956831;28;20382;-83
2023/07/02 01:00:33;;;;;;;;;;;13.00;99.90;;;;;;4937161;28;19915;-82
2023/07/02 01:03:27;;;;;;;;;;;13.10;99.90;;;;;;4956680;28;20012;-84
2023/07/02 01:06:10;;;;;;;;;;;13.10;99.90;;;;;;4949439;29;19923;-83
2023/07/02 01:08:36;;;;;;;;;;;13.10;99.90;;;;;;4956298;28;20665;-82
2023/07/02 01:11:02;;;;;;;;;;;13.10;99.90;;;;;;4935378;28;19919;-84
2023/07/02 01:13:27;;;;;;;;;;;13.10;99.90;;;;;;4939224;28;19918;-83
2023/07/02 01:15:53;;;;;;;;;;;13.10;99.90;;;;;;4974000;28;19914;-82
2023/07/02 01:18:19;;;;;;;;;;;13.10;99.90;;;;;;4935529;28;19953;-82
2023/07/02 01:20:47;;;;;;;;;;;13.10;99.90;;;;;;4934644;28;19926;-84
2023/07/02 01:23:13;;;;;;;;;;;13.10;99.90;;;;;;4960012;28;20293;-83
2023/07/02 01:25:39;;;;;;;;;;;13.00;99.90;;;;;;4960057;28;19914;-85
2023/07/02 01:28:04;;;;;;;;;;;13.00;99.90;;;;;;4944178;28;19929;-83
2023/07/02 01:30:30;;;;;;;;;;;13.00;99.90;;;;;;4954466;28;19950;-82
2023/07/02 01:32:55;;;;;;;;;;;12.90;99.90;;;;;;4955430;28;19925;-83
2023/07/02 01:35:22;;;;;;;;;;;12.90;99.90;;;;;;4968410;28;19914;-83
2023/07/02 01:37:48;;;;;;;;;;;12.80;99.90;;;;;;4937107;29;20542;-83
2023/07/02 01:40:14;;;;;;;;;;;12.80;99.90;;;;;;4942501;28;19915;-82
2023/07/02 01:42:39;;;;;;;;;;;12.80;99.90;;;;;;4936468;29;19921;-83
2023/07/02 01:45:05;;;;;;;;;;;12.90;99.90;;;;;;4963465;28;19914;-82
2023/07/02 01:47:31;;;;;;;;;;;13.00;99.90;;;;;;4934747;29;20035;-83
2023/07/02 01:49:56;;;;;;;;;;;13.00;99.90;;;;;;4956429;28;19918;-83
2023/07/02 01:52:22;;;;;;;;;;;13.10;99.90;;;;;;4943392;28;19918;-82
2023/07/02 01:54:48;;;;;;;;;;;13.10;99.90;;;;;;4976462;28;19914;-82
2023/07/02 01:57:25;;;;;;;;;;;13.10;99.90;;;;;;4943366;28;20115;-83
2023/07/02 01:59:52;;;;;;;;;;;13.10;99.90;;;;;;4934386;28;19914;-82
2023/07/02 02:02:18;;;;;;;;;;;13.20;99.90;;;;;;4973375;28;19914;-82
2023/07/02 02:04:43;;;;;;;;;;;13.20;99.90;;;;;;4949898;29;19922;-83
2023/07/02 02:07:09;;;;;;;;;;;13.20;99.90;;;;;;4939360;28;20374;-83
2023/07/02 02:09:35;;;;;;;;;;;13.20;99.90;;;;;;4953747;28;19992;-83
2023/07/02 02:12:01;;;;;;;;;;;13.20;99.90;;;;;;4955461;28;19918;-82
2023/07/02 02:14:26;;;;;;;;;;;13.20;99.90;;;;;;4934908;28;19918;-82
2023/07/02 02:16:52;;;;;;;;;;;13.20;99.90;;;;;;4970360;28;19918;-82
2023/07/02 02:19:17;;;;;;;;;;;13.20;99.90;;;;;;4933761;28;19917;-82
2023/07/02 02:21:43;;;;;;;;;;;13.20;99.90;;;;;;4953808;28;20345;-82
2023/07/02 02:24:10;;;;;;;;;;;13.20;99.90;;;;;;4947019;28;20009;-82
2023/07/02 02:26:35;;;;;;;;;;;13.10;99.90;;;;;;4933425;29;19914;-82
2023/07/02 02:29:02;;;;;;;;;;;13.10;99.90;;;;;;4955759;28;19910;-83
2023/07/02 02:31:28;;;;;;;;;;;13.10;99.90;;;;;;4951744;28;20416;-83
2023/07/02 02:33:54;;;;;;;;;;;13.10;99.90;;;;;;4952664;28;19961;-82
2023/07/02 02:36:20;;;;;;;;;;;13.10;99.90;;;;;;4965924;28;20424;-82
2023/07/02 02:38:46;;;;;;;;;;;13.00;99.90;;;;;;4935519;28;19921;-82
2023/07/02 02:41:13;;;;;;;;;;;13.00;99.90;;;;;;4955694;28;19953;-82
2023/07/02 02:43:43;;;;;;;;;;;13.00;99.90;;;;;;4934247;29;20398;-83
2023/07/02 02:46:10;;;;;;;;;;;13.10;99.90;;;;;;4969921;28;20366;-82
2023/07/02 02:48:35;;;;;;;;;;;13.10;99.90;;;;;;4936077;28;19914;-82
2023/07/02 02:51:01;;;;;;;;;;;13.10;99.90;;;;;;4954708;28;19920;-82
2023/07/02 02:53:26;;;;;;;;;;;13.10;99.90;;;;;;4964542;28;19925;-82
2023/07/02 02:55:53;;;;;;;;;;;13.10;99.90;;;;;;4969754;28;19918;-82
2023/07/02 02:58:19;;;;;;;;;;;13.10;99.90;;;;;;4947338;28;20013;-82
2023/07/02 03:00:45;;;;;;;;;;;13.10;99.90;;;;;;4975389;28;20000;-82
2023/07/02 03:03:14;;;;;;;;;;;13.10;99.90;;;;;;4950164;28;19996;-83
2023/07/02 03:05:40;;;;;;;;;;;13.20;99.90;;;;;;4929230;28;19920;-83
2023/07/02 03:08:06;;;;;;;;;;;13.20;99.90;;;;;;4946907;28;20385;-82
2023/07/02 03:10:32;;;;;;;;;;;13.20;99.90;;;;;;4937306;28;19915;-80
2023/07/02 03:13:29;;;;;;;;;;;13.10;99.90;;;;;;4959185;28;19969;-82
2023/07/02 03:15:54;;;;;;;;;;;13.10;99.90;;;;;;4950374;28;19968;-82
2023/07/02 03:18:20;;;;;;;;;;;13.10;99.90;;;;;;4925879;28;20017;-83
2023/07/02 03:20:45;;;;;;;;;;;13.10;99.90;;;;;;4974426;28;19944;-82
2023/07/02 03:23:11;;;;;;;;;;;13.20;99.90;;;;;;4952985;28;19918;-82
2023/07/02 03:25:36;;;;;;;;;;;13.20;99.90;;;;;;4951239;28;19921;-84
2023/07/02 03:28:02;;;;;;;;;;;13.20;99.90;;;;;;4941800;28;19950;-84
2023/07/02 03:30:28;;;;;;;;;;;13.20;99.90;;;;;;4957915;28;20001;-85
2023/07/02 03:32:53;;;;;;;;;;;13.20;99.90;;;;;;4941799;28;20080;-84
2023/07/02 03:35:19;;;;;;;;;;;13.30;99.90;;;;;;4951909;28;19926;-83
2023/07/02 03:37:46;;;;;;;;;;;13.30;99.90;;;;;;4935083;29;19943;-84
2023/07/02 03:40:11;;;;;;;;;;;13.20;99.90;;;;;;4954581;28;19977;-84
2023/07/02 03:42:37;;;;;;;;;;;13.20;99.90;;;;;;4953026;28;19913;-83
2023/07/02 03:45:03;;;;;;;;;;;13.10;99.90;;;;;;4965618;28;19933;-83
2023/07/02 03:50:57;;;;;;;;;;;13.20;99.90;;;;;;4966755;28;20578;-84
2023/07/02 03:53:22;;;;;;;;;;;13.20;99.90;;;;;;4931584;28;19918;-84
2023/07/02 03:55:48;;;;;;;;;;;13.20;99.90;;;;;;4932986;29;19915;-84
2023/07/02 03:58:13;;;;;;;;;;;13.20;99.90;;;;;;4971332;28;19929;-83
2023/07/02 04:00:40;;;;;;;;;;;13.20;99.90;;;;;;4957596;28;19949;-84
2023/07/02 04:03:05;;;;;;;;;;;13.20;99.90;;;;;;4934661;28;20433;-84
2023/07/02 04:05:31;;;;;;;;;;;13.30;99.90;;;;;;4930528;29;19918;-84
2023/07/02 04:07:56;;;;;;;;;;;13.30;99.90;;;;;;4959122;28;19923;-84
2023/07/02 04:10:22;;;;;;;;;;;13.40;99.90;;;;;;4957167;28;19918;-84
2023/07/02 04:12:48;;;;;;;;;;;13.50;99.90;;;;;;4957427;28;19918;-84
2023/07/02 04:15:13;;;;;;;;;;;13.50;99.90;;;;;;4957335;28;20011;-83
2023/07/02 04:17:39;;;;;;;;;;;13.50;99.90;;;;;;4964338;28;19914;-85
2023/07/02 04:20:06;;;;;;;;;;;13.50;99.90;;;;;;4935835;28;20274;-84
2023/07/02 04:22:32;;;;;;;;;;;13.50;99.90;;;;;;4935255;28;19918;-84
2023/07/02 04:24:57;;;;;;;;;;;13.50;99.90;;;;;;4953551;28;20008;-84
2023/07/02 04:27:23;;;;;;;;;;;13.40;99.90;;;;;;4932826;28;20054;-84
2023/07/02 04:29:49;;;;;;;;;;;13.40;99.90;;;;;;4932641;29;19914;-84
2023/07/02 04:32:14;;;;;;;;;;;13.30;99.90;;;;;;4954207;28;19954;-84
2023/07/02 04:34:40;;;;;;;;;;;13.20;99.90;;;;;;4951481;28;19921;-85
2023/07/02 04:44:03;;;;;;;;;;;13.10;99.90;;;;;;4958912;28;20502;-84
2023/07/02 04:46:29;;;;;;;;;;;13.10;99.90;;;;;;4959199;28;19922;-84
2023/07/02 04:48:55;;;;;;;;;;;13.00;99.90;;;;;;4957070;28;19973;-84
2023/07/02 04:51:20;;;;;;;;;;;13.10;99.90;;;;;;4934920;28;19915;-84
2023/07/02 04:53:46;;;;;;;;;;;13.10;99.90;;;;;;4961317;28;19921;-84
2023/07/02 04:56:20;;;;;;;;;;;13.20;99.90;;;;;;4955425;28;19914;-83
2023/07/02 04:58:46;;;;;;;;;;;13.50;99.90;;;;;;4957346;28;20373;-84
2023/07/02 05:01:12;;;;;;;;;;;13.60;99.90;;;;;;4936721;28;19946;-84
2023/07/02 05:03:38;;;;;;;;;;;13.80;99.90;;;;;;4952474;28;20429;-84
2023/07/02 05:06:03;;;;;;;;;;;13.80;99.90;;;;;;4955812;28;19924;-84
2023/07/02 05:08:29;;;;;;;;;;;13.80;99.90;;;;;;4960694;28;19922;-84
2023/07/02 05:10:54;;;;;;;;;;;13.70;99.90;;;;;;4976229;28;19914;-83
2023/07/02 05:13:20;;;;;;;;;;;13.80;99.90;;;;;;4960359;28;19914;-84
2023/07/02 05:15:46;;;;;;;;;;;13.70;99.90;;;;;;4974513;28;19919;-84
2023/07/02 05:18:12;;;;;;;;;;;13.60;99.90;;;;;;4960477;28;19918;-84
2023/07/02 05:20:37;;;;;;;;;;;13.60;99.90;;;;;;4941264;28;19921;-84
2023/07/02 05:23:03;;;;;;;;;;;13.60;99.90;;;;;;4960581;28;19914;-84
2023/07/02 05:25:28;;;;;;;;;;;13.60;99.90;;;;;;4956397;28;19918;-84
2023/07/02 05:27:54;;;;;;;;;;;13.50;99.90;;;;;;4960763;28;19928;-84
2023/07/02 05:30:20;;;;;;;;;;;13.60;99.90;;;;;;4937157;28;20326;-84
2023/07/02 05:32:48;;;;;;;;;;;13.50;99.90;;;;;;4957352;28;20008;-84
2023/07/02 05:35:14;;;;;;;;;;;13.60;99.90;;;;;;4936246;28;19918;-84
2023/07/02 05:37:39;;;;;;;;;;;13.60;99.90;;;;;;4936337;29;19963;-84
2023/07/02 05:40:05;;;;;;;;;;;13.70;99.90;;;;;;4973025;28;19914;-84
2023/07/02 05:42:31;;;;;;;;;;;13.70;99.90;;;;;;4959739;28;20378;-83
2023/07/02 05:44:57;;;;;;;;;;;13.70;99.90;;;;;;4960741;28;19937;-84
2023/07/02 05:47:22;;;;;;;;;;;13.70;99.90;;;;;;4972986;28;19914;-85
2023/07/02 05:49:48;;;;;;;;;;;13.80;99.90;;;;;;4959830;28;19914;-84
2023/07/02 05:52:22;;;;;;;;;;;13.80;99.90;;;;;;4959757;28;20141;-84
2023/07/02 05:54:48;;;;;;;;;;;13.80;99.90;;;;;;4944492;28;19984;-84
2023/07/02 05:57:13;;;;;;;;;;;13.90;99.90;;;;;;4959711;28;19914;-84
2023/07/02 05:59:39;;;;;;;;;;;13.90;99.90;;;;;;4943227;28;19981;-84
2023/07/02 06:02:04;;;;;;;;;;;14.00;99.90;;;;;;4959352;28;19925;-85
2023/07/02 06:04:30;;;;;;;;;;;14.10;99.90;;;;;;4941033;28;19921;-82
2023/07/02 06:06:57;;;;;;;;;;;14.10;99.90;;;;;;4929262;29;19926;-83
2023/07/02 06:09:23;;;;;;;;;;;14.20;99.90;;;;;;4955575;28;20361;-83
2023/07/02 06:11:48;;;;;;;;;;;14.20;99.90;;;;;;4951000;28;19918;-84
2023/07/02 06:14:14;;;;;;;;;;;14.30;99.90;;;;;;4934930;28;19927;-83
2023/07/02 06:16:40;;;;;;;;;;;14.30;99.90;;;;;;4949235;28;20000;-82
2023/07/02 06:19:05;;;;;;;;;;;14.40;99.90;;;;;;4955509;28;19914;-84
2023/07/02 06:21:31;;;;;;;;;;;14.60;99.90;;;;;;4935973;28;20457;-81
2023/07/02 06:24:01;;;;;;;;;;;14.80;99.90;;;;;;4950322;28;19915;-85
2023/07/02 06:26:27;;;;;;;;;;;15.00;99.90;;;;;;4952305;28;20543;-84
2023/07/02 06:28:53;;;;;;;;;;;15.20;99.90;;;;;;4972330;28;19941;-85
2023/07/02 06:31:18;;;;;;;;;;;15.40;99.90;;;;;;4955319;28;20012;-82
2023/07/02 06:33:44;;;;;;;;;;;15.50;99.90;;;;;;4950735;28;20408;-83
2023/07/02 06:36:10;;;;;;;;;;;15.40;99.90;;;;;;4948350;28;19917;-82
2023/07/02 06:38:36;;;;;;;;;;;15.30;99.90;;;;;;4950531;28;20009;-81
2023/07/02 06:41:03;;;;;;;;;;;15.40;99.90;;;;;;4938724;28;20009;-84
2023/07/02 06:43:29;;;;;;;;;;;15.50;99.90;;;;;;4927820;28;19965;-85
2023/07/02 06:45:54;;;;;;;;;;;15.60;99.90;;;;;;4932816;28;19962;-84
2023/07/02 06:48:21;;;;;;;;;;;15.50;99.90;;;;;;4941967;28;19919;-84
2023/07/02 06:50:47;;;;;;;;;;;15.50;99.90;;;;;;4937821;28;19918;-84
2023/07/02 06:53:13;;;;;;;;;;;15.40;99.90;;;;;;4951092;28;19918;-83
2023/07/02 06:55:38;;;;;;;;;;;15.20;99.90;;;;;;4935880;28;20310;-83
2023/07/02 06:58:05;;;;;;;;;;;15.10;99.90;;;;;;4952023;28;19933;-83
2023/07/02 07:00:32;;;;;;;;;;;15.10;99.90;;;;;;4951844;28;19922;-85
2023/07/02 07:02:58;;;;;;;;;;;15.10;99.90;;;;;;4941389;28;20062;-84
2023/07/02 07:05:23;;;;;;;;;;;15.20;99.90;;;;;;4948332;28;20701;-83
2023/07/02 07:07:49;;;;;;;;;;;15.20;99.90;;;;;;4947809;28;20001;-85
2023/07/02 07:10:15;;;;;;;;;;;15.20;99.90;;;;;;4942050;28;19917;-85
2023/07/02 07:12:40;;;;;;;;;;;15.20;99.90;;;;;;4936761;28;19925;-84
2023/07/02 07:15:06;;;;;;;;;;;15.10;99.90;;;;;;4953456;28;19922;-84
2023/07/02 07:17:32;;;;;;;;;;;15.50;99.90;;;;;;4932936;28;19914;-84
2023/07/02 07:19:57;;;;;;;;;;;15.90;99.90;;;;;;4955000;28;19918;-84
2023/07/02 07:22:23;;;;;;;;;;;17.00;99.90;;;;;;4943796;28;19918;-83
2023/07/02 07:24:49;;;;;;;;;;;18.20;99.90;;;;;;4946487;28;19921;-84
2023/07/02 07:27:14;;;;;;;;;;;19.10;99.90;;;;;;4964547;28;20013;-83
2023/07/02 07:29:40;;;;;;;;;;;19.60;99.90;;;;;;4936498;28;19969;-83
2023/07/02 07:32:06;;;;;;;;;;;20.20;99.90;;;;;;4933271;29;19985;-83
2023/07/02 07:34:31;;;;;;;;;;;20.60;99.90;;;;;;4948373;28;19914;-83
2023/07/02 07:36:57;;;;;;;;;;;21.00;99.90;;;;;;4954872;28;19915;-83
2023/07/02 07:39:23;;;;;;;;;;;20.00;99.90;;;;;;4932847;28;20449;-83
2023/07/02 07:41:48;;;;;;;;;;;19.80;99.90;;;;;;4930200;28;19914;-84
2023/07/02 07:44:14;;;;;;;;;;;19.80;99.90;;;;;;4949835;28;19918;-84
2023/07/02 07:46:40;;;;;;;;;;;18.80;99.90;;;;;;4952423;28;19929;-83
2023/07/02 07:49:05;;;;;;;;;;;18.00;99.90;;;;;;4929211;29;19922;-83
2023/07/02 07:51:31;;;;;;;;;;;17.40;99.90;;;;;;4946762;28;20292;-83
2023/07/02 07:53:57;;;;;;;;;;;16.80;99.90;;;;;;4943437;28;19918;-84
2023/07/02 07:56:23;;;;;;;;;;;16.70;99.90;;;;;;4943589;28;19921;-84
2023/07/02 07:58:48;;;;;;;;;;;16.60;99.90;;;;;;4966995;28;19926;-83
2023/07/02 08:01:14;;;;;;;;;;;16.60;99.90;;;;;;4944692;28;19966;-84
2023/07/02 08:03:39;;;;;;;;;;;17.40;99.90;;;;;;4946016;28;19929;-85
2023/07/02 08:06:05;;;;;;;;;;;18.40;99.90;;;;;;4949624;28;19922;-84
2023/07/02 08:08:30;;;;;;;;;;;19.40;99.90;;;;;;4944130;28;20385;-83
2023/07/02 08:10:56;;;;;;;;;;;19.80;99.90;;;;;;4950685;28;19952;-83
2023/07/02 08:13:22;;;;;;;;;;;20.10;99.90;;;;;;4957754;28;19918;-84
2023/07/02 08:19:16;;;;;;;;;;;21.00;99.90;;;;;;4970196;28;19973;-84
2023/07/02 08:21:52;;;;;;;;;;;21.80;99.90;;;;;;4957372;28;20341;-84
2023/07/02 08:24:17;;;;;;;;;;;22.20;99.90;;;;;;4933896;29;19977;-85
2023/07/02 08:27:02;;;;;;;;;;;22.50;99.90;;;;;;4955781;28;19910;-83
2023/07/02 08:29:28;;;;;;;;;;;21.90;99.90;;;;;;4930167;28;19915;-83
2023/07/02 08:31:54;;;;;;;;;;;20.70;99.90;;;;;;4953853;28;20382;-83
2023/07/02 08:34:20;;;;;;;;;;;20.60;99.90;;;;;;4957010;28;19914;-83
2023/07/02 08:36:45;;;;;;;;;;;20.40;99.90;;;;;;4956489;28;20381;-83
2023/07/02 08:39:11;;;;;;;;;;;19.90;99.90;;;;;;4957605;28;19914;-83
2023/07/02 08:41:44;;;;;;;;;;;19.80;99.90;;;;;;4952840;28;19921;-82
2023/07/02 08:44:13;;;;;;;;;;;19.70;99.90;;;;;;4957459;28;19969;-83
2023/07/02 08:46:42;;;;;;;;;;;19.30;99.90;;;;;;4935257;28;19925;-83
2023/07/02 08:49:08;;;;;;;;;;;19.80;99.90;;;;;;4974941;28;19929;-84
2023/07/02 08:51:34;;;;;;;;;;;20.60;99.90;;;;;;4934885;28;19957;-84
2023/07/02 08:53:59;;;;;;;;;;;20.70;99.90;;;;;;4933926;29;19950;-83
2023/07/02 08:56:26;;;;;;;;;;;20.40;99.90;;;;;;4952954;28;19922;-83
2023/07/02 08:58:52;;;;;;;;;;;19.70;99.90;;;;;;4956557;28;19918;-83
2023/07/02 09:01:18;;;;;;;;;;;19.10;99.90;;;;;;4965683;28;20595;-85
2023/07/02 09:06:47;;;;;;;;;;;20.30;99.90;;;;;;4967220;28;19918;-83
2023/07/02 09:09:13;;;;;;;;;;;21.40;99.90;;;;;;4939538;28;19915;-83
2023/07/02 09:11:51;;;;;;;;;;;21.80;99.90;;;;;;4946348;28;19918;-83
2023/07/02 09:14:23;;;;;;;;;;;22.30;99.90;;;;;;4935988;28;19919;-84
2023/07/02 09:16:49;;;;;;;;;;;22.90;99.90;;;;;;4927178;29;20282;-83
2023/07/02 09:19:15;;;;;;;;;;;23.40;99.90;;;;;;4944376;29;20021;-84
2023/07/02 09:21:45;;;;;;;;;;;22.20;99.90;;;;;;4953723;28;19915;-84
2023/07/02 09:24:14;;;;;;;;;;;21.30;99.90;;;;;;4952965;28;20274;-84
2023/07/02 09:26:43;;;;;;;;;;;20.50;99.90;;;;;;4947482;28;20001;-84
2023/07/02 09:29:09;;;;;;;;;;;21.00;99.90;;;;;;4946484;28;19914;-83
2023/07/02 09:31:45;;;;;;;;;;;22.00;99.90;;;;;;4922028;28;19914;-83
2023/07/02 09:34:11;;;;;;;;;;;22.90;99.90;;;;;;4946114;28;19996;-83
2023/07/02 09:36:49;;;;;;;;;;;23.60;99.90;;;;;;4950706;28;19934;-84
2023/07/02 09:39:54;;;;;;;;;;;23.50;99.90;;;;;;4940081;29;20384;-83
2023/07/02 09:42:21;;;;;;;;;;;23.20;99.90;;;;;;4934472;29;19926;-84
2023/07/02 09:44:47;;;;;;;;;;;23.00;99.90;;;;;;4938710;28;19942;-84
2023/07/02 09:47:13;;;;;;;;;;;23.20;99.90;;;;;;4931812;29;19914;-84
2023/07/02 09:49:45;;;;;;;;;;;23.40;99.60;;;;;;4941677;28;19922;-85
2023/07/02 09:52:11;;;;;;;;;;;23.40;99.40;;;;;;4939434;29;20269;-84
2023/07/02 09:54:37;;;;;;;;;;;23.20;99.30;;;;;;4940142;28;20448;-84
2023/07/02 09:57:03;;;;;;;;;;;22.80;97.80;;;;;;4940517;28;20021;-84
2023/07/02 09:59:29;;;;;;;;;;;22.50;98.50;;;;;;4940126;28;20650;-84
2023/07/02 10:01:55;;;;;;;;;;;22.50;98.60;;;;;;4932149;28;19923;-84
2023/07/02 10:04:21;;;;;;;;;;;22.70;99.80;;;;;;4939858;29;19954;-85
2023/07/02 10:07:21;;;;;;;;;;;22.60;97.30;;;;;;4939626;28;19926;-84
2023/07/02 10:09:46;;;;;;;;;;;22.00;97.30;;;;;;4949907;28;19945;-84
2023/07/02 10:12:16;;;;;;;;;;;20.30;98.40;;;;;;4929367;28;20008;-85
2023/07/02 10:14:45;;;;;;;;;;;20.50;99.70;;;;;;4953569;28;20793;-84
2023/07/02 10:17:11;;;;;;;;;;;20.20;99.40;;;;;;4941617;28;19918;-85
2023/07/02 10:19:36;;;;;;;;;;;20.10;99.90;;;;;;4951958;28;19922;-83
2023/07/02 10:22:07;;;;;;;;;;;20.50;99.80;;;;;;4959396;28;19969;-84
2023/07/02 10:24:33;;;;;;;;;;;21.10;99.90;;;;;;4921388;28;20252;-84
2023/07/02 10:27:00;;;;;;;;;;;21.60;99.10;;;;;;4923851;29;19922;-84
2023/07/02 10:29:26;;;;;;;;;;;21.70;99.60;;;;;;4939640;29;20355;-84
2023/07/02 10:31:52;;;;;;;;;;;21.50;97.30;;;;;;4940390;29;20370;-84
2023/07/02 10:34:28;;;;;;;;;;;21.30;98.30;;;;;;4954157;28;19914;-84
2023/07/02 10:36:54;;;;;;;;;;;21.00;98.80;;;;;;4951354;28;20173;-84
2023/07/02 10:39:20;;;;;;;;;;;20.50;98.80;;;;;;4941876;28;20009;-85
2023/07/02 10:41:45;;;;;;;;;;;20.10;99.50;;;;;;4958862;28;20010;-84
2023/07/02 10:44:12;;;;;;;;;;;20.00;99.90;;;;;;4940639;28;19919;-84
2023/07/02 10:46:47;;;;;;;;;;;19.90;99.60;;;;;;4976504;28;20267;-83
2023/07/02 10:49:13;;;;;;;;;;;19.60;99.90;;;;;;4935631;29;20322;-84
2023/07/02 10:51:39;;;;;;;;;;;20.00;99.90;;;;;;4974137;28;19915;-84
2023/07/02 10:54:05;;;;;;;;;;;20.40;99.20;;;;;;4958430;28;19914;-84
2023/07/02 10:56:31;;;;;;;;;;;20.70;99.10;;;;;;4958961;28;19914;-83
2023/07/02 10:58:57;;;;;;;;;;;20.70;98.90;;;;;;4934120;29;20367;-84
2023/07/02 11:01:23;;;;;;;;;;;20.80;98.70;;;;;;4950989;28;19921;-84
2023/07/02 11:03:55;;;;;;;;;;;20.90;98.90;;;;;;4935588;28;19914;-83
2023/07/02 11:06:21;;;;;;;;;;;21.20;99.90;;;;;;4938272;28;20449;-82
2023/07/02 11:08:46;;;;;;;;;;;22.10;99.00;;;;;;4923444;28;19915;-83
2023/07/02 11:11:12;;;;;;;;;;;22.90;97.10;;;;;;4955472;28;20569;-83
2023/07/02 11:13:46;;;;;;;;;;;22.60;96.50;;;;;;4933386;28;19926;-83
2023/07/02 11:16:20;;;;;;;;;;;22.40;96.40;;;;;;4953038;28;19918;-84
2023/07/02 11:18:45;;;;;;;;;;;21.40;95.90;;;;;;4927841;28;19921;-84
2023/07/02 11:21:11;;;;;;;;;;;20.60;97.90;;;;;;4932065;28;20001;-85
2023/07/02 11:23:36;;;;;;;;;;;20.20;98.20;;;;;;4952497;28;20663;-83
2023/07/02 11:26:03;;;;;;;;;;;19.80;98.90;;;;;;4939727;28;19973;-83
2023/07/02 11:28:30;;;;;;;;;;;19.60;99.20;;;;;;4927325;28;19920;-83
2023/07/02 11:30:57;;;;;;;;;;;19.70;99.70;;;;;;4919837;29;20013;-84
2023/07/02 11:33:35;;;;;;;;;;;19.90;99.40;;;;;;4947594;28;19919;-83
2023/07/02 11:36:01;;;;;;;;;;;20.20;99.20;;;;;;4951555;28;19914;-84
2023/07/02 11:38:26;;;;;;;;;;;20.40;99.40;;;;;;4959002;28;19921;-84
2023/07/02 11:40:52;;;;;;;;;;;20.60;98.80;;;;;;4948800;28;19914;-84
2023/07/02 11:43:17;;;;;;;;;;;20.80;98.40;;;;;;4941296;28;19946;-84
2023/07/02 11:45:43;;;;;;;;;;;21.10;98.00;;;;;;4923019;28;19910;-83
2023/07/02 11:48:09;;;;;;;;;;;20.80;99.00;;;;;;4925713;29;19922;-85
2023/07/02 11:50:35;;;;;;;;;;;20.70;97.90;;;;;;4928838;28;19922;-84
2023/07/02 11:53:25;;;;;;;;;;;20.80;98.20;;;;;;4938518;29;19973;-85
2023/07/02 11:56:13;;;;;;;;;;;20.90;95.80;;;;;;4939093;29;20447;-84
2023/07/02 11:58:41;;;;;;;;;;;20.80;96.20;;;;;;4954210;28;20013;-83
2023/07/02 12:01:07;;;;;;;;;;;21.60;96.40;;;;;;4963813;28;20681;-83
2023/07/02 12:03:33;;;;;;;;;;;22.00;95.40;;;;;;4936286;28;19914;-84
2023/07/02 12:05:58;;;;;;;;;;;22.80;96.00;;;;;;4922294;29;20398;-84
2023/07/02 12:08:24;;;;;;;;;;;23.70;94.20;;;;;;4944851;28;19954;-84
2023/07/02 12:10:50;;;;;;;;;;;24.10;93.30;;;;;;4955924;28;20405;-83
2023/07/02 12:13:15;;;;;;;;;;;23.70;92.70;;;;;;4960380;28;19918;-82
2023/07/02 12:15:41;;;;;;;;;;;22.80;93.20;;;;;;4923426;28;19966;-84
2023/07/02 12:18:07;;;;;;;;;;;22.40;94.00;;;;;;4923255;29;20534;-83
2023/07/02 12:20:52;;;;;;;;;;;21.90;94.30;;;;;;4943652;28;20378;-83
2023/07/02 12:23:18;;;;;;;;;;;21.70;94.30;;;;;;4936219;28;19986;-83
2023/07/02 12:25:44;;;;;;;;;;;22.30;95.20;;;;;;4935352;28;19918;-83
2023/07/02 12:28:09;;;;;;;;;;;22.60;94.30;;;;;;4921769;29;20016;-84
2023/07/02 12:30:35;;;;;;;;;;;22.70;94.30;;;;;;4945906;28;19922;-83
2023/07/02 12:33:00;;;;;;;;;;;22.70;94.60;;;;;;4924595;28;20028;-84
2023/07/02 12:35:26;;;;;;;;;;;22.30;94.20;;;;;;4938351;29;19966;-83
2023/07/02 12:37:52;;;;;;;;;;;21.90;94.20;;;;;;4961613;28;19938;-84
2023/07/02 12:40:18;;;;;;;;;;;21.80;95.20;;;;;;4932192;29;20528;-84
2023/07/02 12:42:44;;;;;;;;;;;21.60;95.00;;;;;;4933703;28;19922;-83
2023/07/02 12:45:11;;;;;;;;;;;21.30;95.20;;;;;;4924095;28;20334;-84
2023/07/02 12:47:37;;;;;;;;;;;21.20;95.70;;;;;;4937600;28;20710;-83
2023/07/02 12:50:04;;;;;;;;;;;21.60;94.30;;;;;;4942411;28;19953;-83
2023/07/02 12:52:35;;;;;;;;;;;22.20;94.60;;;;;;4941913;28;19945;-84
2023/07/02 12:55:01;;;;;;;;;;;22.50;93.70;;;;;;4937117;29;20355;-83
2023/07/02 12:57:27;;;;;;;;;;;22.10;94.20;;;;;;4949676;28;19921;-84
2023/07/02 12:59:53;;;;;;;;;;;22.00;94.70;;;;;;4937691;28;19930;-84
2023/07/02 13:02:18;;;;;;;;;;;21.60;94.00;;;;;;4931816;29;19925;-83
2023/07/02 13:04:44;;;;;;;;;;;21.60;94.00;;;;;;4947701;28;19918;-84
2023/07/02 13:07:10;;;;;;;;;;;21.50;94.50;;;;;;4966381;28;19918;-83
2023/07/02 13:09:35;;;;;;;;;;;22.00;94.20;;;;;;4939154;28;20306;-83
2023/07/02 13:12:01;;;;;;;;;;;22.40;93.50;;;;;;4927972;28;19926;-83
2023/07/02 13:14:27;;;;;;;;;;;22.40;92.90;;;;;;4962723;28;19915;-84
2023/07/02 13:16:52;;;;;;;;;;;22.10;93.60;;;;;;4948600;28;19961;-83
2023/07/02 13:19:18;;;;;;;;;;;21.90;93.40;;;;;;4925871;29;20041;-84
2023/07/02 13:21:43;;;;;;;;;;;21.90;94.40;;;;;;4961396;28;20395;-85
2023/07/02 13:24:11;;;;;;;;;;;21.70;93.80;;;;;;4934633;28;19926;-84
2023/07/02 13:26:36;;;;;;;;;;;21.10;94.70;;;;;;4946222;28;19942;-83
2023/07/02 13:29:02;;;;;;;;;;;20.90;94.60;;;;;;4953763;28;19918;-83
2023/07/02 13:31:27;;;;;;;;;;;20.60;95.00;;;;;;4942254;28;19918;-84
2023/07/02 13:33:53;;;;;;;;;;;20.70;94.40;;;;;;4941801;28;19922;-84
2023/07/02 13:36:19;;;;;;;;;;;20.70;94.60;;;;;;4976381;28;19914;-83
2023/07/02 13:38:44;;;;;;;;;;;20.90;94.50;;;;;;4963926;28;19922;-88
2023/07/02 13:41:10;;;;;;;;;;;21.60;94.00;;;;;;4938242;28;19914;-89
2023/07/02 13:43:44;;;;;;;;;;;21.90;92.90;;;;;;4944452;28;19910;-92
2023/07/02 13:46:10;;;;;;;;;;;21.70;93.20;;;;;;4950229;28;20266;-92
2023/07/02 13:48:36;;;;;;;;;;;21.90;93.30;;;;;;4945612;29;19918;-92
2023/07/02 13:51:14;;;;;;;;;;;22.40;93.10;;;;;;4950287;28;19965;-92
2023/07/02 13:53:42;;;;;;;;;;;23.00;92.90;;;;;;4938796;28;20387;-92
2023/07/02 13:56:08;;;;;;;;;;;23.00;91.60;;;;;;4937222;29;19973;-92
2023/07/02 13:59:06;;;;;;;;;;;23.10;91.60;;;;;;4962104;28;19949;-94
2023/07/02 14:01:33;;;;;;;;;;;23.40;91.60;;;;;;4922360;28;19915;-92
2023/07/02 14:03:59;;;;;;;;;;;23.50;91.40;;;;;;4942528;28;20014;-92
2023/07/02 14:06:25;;;;;;;;;;;23.40;91.50;;;;;;4947279;28;19922;-92
2023/07/02 14:08:51;;;;;;;;;;;23.10;91.70;;;;;;4935247;28;19915;-91
2023/07/02 14:11:27;;;;;;;;;;;23.30;91.40;;;;;;4942614;29;19894;-93
2023/07/02 14:13:53;;;;;;;;;;;23.10;91.20;;;;;;4965326;28;19953;-92
2023/07/02 14:16:19;;;;;;;;;;;23.30;91.40;;;;;;4959632;28;19910;-91
2023/07/02 14:18:45;;;;;;;;;;;23.30;91.40;;;;;;4943396;28;20000;-95
2023/07/02 14:21:11;;;;;;;;;;;23.00;91.10;;;;;;4940531;28;19899;-91
2023/07/02 14:23:36;;;;;;;;;;;23.00;92.20;;;;;;4944706;28;19922;-90
2023/07/02 14:26:02;;;;;;;;;;;23.20;91.20;;;;;;4941556;28;19961;-90
2023/07/02 14:28:29;;;;;;;;;;;23.50;90.80;;;;;;4938172;28;19981;-93
2023/07/02 14:30:56;;;;;;;;;;;23.60;90.40;;;;;;4964566;28;19918;-94
2023/07/02 14:33:21;;;;;;;;;;;23.80;90.30;;;;;;4949684;28;19918;-93